AUR214 EGJB-EGJA

Flight info

Callsign AUR214
Flight time 0h 12m
Altitude 7000
Route ALD
Aircraft DHC6/L-SDFGR/C

Departure

Time 2026-04-22 14:40
Airport Guernsey Airport (EGJB)

Arrival

Time 2026-04-22 14:53
Airport Alderney Airport (EGJA)
Time Latitude Longitude Altitude Speed Heading
2026-04-22 14:20 49.43283 -2.59556 323 ft 0 kts 279°
2026-04-22 14:36 49.43285 -2.59559 325 ft 1 kts 312°
2026-04-22 14:36 49.43309 -2.59567 329 ft 5 kts 356°
2026-04-22 14:36 49.43331 -2.59570 327 ft 4 kts
2026-04-22 14:37 49.43363 -2.59607 325 ft 8 kts 268°
2026-04-22 14:37 49.43359 -2.59701 325 ft 11 kts 266°
2026-04-22 14:37 49.43346 -2.59797 324 ft 10 kts 266°
2026-04-22 14:37 49.43343 -2.59898 317 ft 13 kts 266°
2026-04-22 14:38 49.43338 -2.60080 305 ft 18 kts 266°
2026-04-22 14:38 49.43334 -2.60264 293 ft 22 kts 268°
2026-04-22 14:38 49.43327 -2.60466 289 ft 18 kts 267°
2026-04-22 14:38 49.43359 -2.60644 296 ft 16 kts 339°
2026-04-22 14:39 49.43437 -2.60656 303 ft 8 kts 355°
2026-04-22 14:39 49.43485 -2.60629 305 ft 7 kts 58°
2026-04-22 14:39 49.43488 -2.60577 304 ft 23 kts 90°
2026-04-22 14:40 49.43517 -2.58983 630 ft 98 kts 87°
2026-04-22 14:40 49.43570 -2.57876 934 ft 113 kts 75°
2026-04-22 14:40 49.44096 -2.56919 1210 ft 129 kts 33°
2026-04-22 14:40 49.45057 -2.56910 1483 ft 155 kts 351°
2026-04-22 14:41 49.45952 -2.57985 1771 ft 174 kts 310°
2026-04-22 14:41 49.46409 -2.59775 1934 ft 186 kts 286°
2026-04-22 14:41 49.47075 -2.61475 1957 ft 187 kts 322°
2026-04-22 14:41 49.48167 -2.62368 1964 ft 176 kts 356°
2026-04-22 14:42 49.49359 -2.62363 2006 ft 170 kts 14°
2026-04-22 14:42 49.50496 -2.62189 2001 ft 160 kts 17°
2026-04-22 14:42 49.51519 -2.61787 1979 ft 142 kts 42°
2026-04-22 14:42 49.52214 -2.60801 1988 ft 134 kts 55°
2026-04-22 14:43 49.52830 -2.59737 1990 ft 132 kts 57°
2026-04-22 14:43 49.53420 -2.58659 1977 ft 131 kts 58°
2026-04-22 14:43 49.53997 -2.57586 1982 ft 129 kts 59°
2026-04-22 14:43 49.54570 -2.56552 1997 ft 128 kts 59°
2026-04-22 14:44 49.55157 -2.55502 1998 ft 129 kts 59°
2026-04-22 14:44 49.55741 -2.54448 1994 ft 129 kts 59°
2026-04-22 14:44 49.56330 -2.53392 2001 ft 130 kts 59°
2026-04-22 14:44 49.56921 -2.52330 1997 ft 131 kts 59°
2026-04-22 14:45 49.57505 -2.51245 1981 ft 131 kts 59°
2026-04-22 14:45 49.58077 -2.50160 1984 ft 129 kts 59°
2026-04-22 14:45 49.58650 -2.49102 1988 ft 128 kts 59°
2026-04-22 14:45 49.59217 -2.48049 1992 ft 127 kts 59°
2026-04-22 14:46 49.59773 -2.47013 1999 ft 127 kts 59°
2026-04-22 14:46 49.60343 -2.45956 2027 ft 128 kts 59°
2026-04-22 14:46 49.60915 -2.44885 2025 ft 130 kts 59°
2026-04-22 14:46 49.61487 -2.43797 2017 ft 131 kts 59°
2026-04-22 14:47 49.62060 -2.42704 2015 ft 131 kts 59°
2026-04-22 14:47 49.62632 -2.41610 2003 ft 130 kts 59°
2026-04-22 14:47 49.63200 -2.40532 2003 ft 129 kts 59°
2026-04-22 14:47 49.63763 -2.39455 2013 ft 129 kts 59°
2026-04-22 14:48 49.64317 -2.38383 2011 ft 129 kts 59°
2026-04-22 14:48 49.64876 -2.37303 2021 ft 129 kts 59°
2026-04-22 14:48 49.65438 -2.36212 2036 ft 131 kts 59°
2026-04-22 14:48 49.66073 -2.35185 2023 ft 140 kts 41°
2026-04-22 14:49 49.67048 -2.34758 2031 ft 148 kts 23°
2026-04-22 14:49 49.68077 -2.34479 2026 ft 149 kts 22°
2026-04-22 14:49 49.68890 -2.33831 1839 ft 120 kts 56°
2026-04-22 14:49 49.69286 -2.32807 1701 ft 103 kts 76°
2026-04-22 14:50 49.69497 -2.31807 1653 ft 94 kts 78°
2026-04-22 14:50 49.69681 -2.30867 1638 ft 89 kts 79°
2026-04-22 14:50 49.69802 -2.29947 1583 ft 86 kts 85°
2026-04-22 14:50 49.69889 -2.29013 1498 ft 91 kts 79°
2026-04-22 14:51 49.70012 -2.28060 1476 ft 88 kts 85°
2026-04-22 14:51 49.70085 -2.27108 1375 ft 91 kts 84°
2026-04-22 14:51 49.70170 -2.26157 1227 ft 82 kts 83°
2026-04-22 14:51 49.70228 -2.25383 954 ft 68 kts 79°
2026-04-22 14:52 49.70299 -2.24665 668 ft 67 kts 79°
2026-04-22 14:52 49.70382 -2.23932 576 ft 75 kts 81°
2026-04-22 14:52 49.70474 -2.23142 463 ft 67 kts 80°
2026-04-22 14:52 49.70556 -2.22448 361 ft 66 kts 79°
2026-04-22 14:53 49.70629 -2.21836 267 ft 49 kts 79°
2026-04-22 14:53 49.70671 -2.21548 265 ft 10 kts 21°
2026-04-22 14:53 49.70745 -2.21575 269 ft 11 kts 357°
2026-04-22 14:53 49.70787 -2.21526 272 ft 5 kts 74°
2026-04-22 14:54 49.70798 -2.21485 272 ft 5 kts 68°
2026-04-22 14:54 49.70844 -2.21446 274 ft 12 kts 329°
2026-04-22 14:54 49.70838 -2.21465 273 ft 2 kts 201°
2026-04-22 14:54 49.70833 -2.21468 273 ft 0 kts 204°